This is the latest recevied weather packets stored in our database for station/object OE5ERN-10. If no packets are shown the sender has not sent any weather packets the latest 10 day(s).
| Time | Temp. | Humidity | Pressure | Rain* | Wind** | Luminosity | Snow |
|---|---|---|---|---|---|---|---|
| 1777209951 | 22.22° C | 24% | 1024.4 hPa | 0 mm | - | - | - |
| 1777209051 | 22.78° C | 24% | 1024.4 hPa | 0 mm | - | - | - |
| 1777208151 | 22.22° C | 25% | 1024.4 hPa | 0 mm | - | - | - |
| 1777207251 | 22.22° C | 26% | 1024.6 hPa | 0 mm | - | - | - |
| 1777206351 | 22.22° C | 26% | 1024.7 hPa | 0 mm | - | - | - |
| 1777205451 | 22.22° C | 26% | 1024.7 hPa | 0 mm | - | - | - |
| 1777204551 | 22.78° C | 26% | 1024.7 hPa | 0 mm | - | - | - |
| 1777203651 | 22.78° C | 26% | 1024.8 hPa | 0 mm | - | - | - |
| 1777202751 | 22.78° C | 29% | 1024.9 hPa | 0 mm | - | - | - |
| 1777201851 | 22.22° C | 29% | 1025 hPa | 0 mm | - | - | - |
| 1777200951 | 22.78° C | 30% | 1025.1 hPa | 0 mm | - | - | - |
| 1777200051 | 22.22° C | 30% | 1025 hPa | 0 mm | - | - | - |
| 1777199151 | 22.78° C | 29% | 1025.1 hPa | 0 mm | - | - | - |
| 1777198251 | 24.44° C | 26% | 1025.2 hPa | 0 mm | - | - | - |
| 1777197351 | 28.33° C | 22% | 1025.3 hPa | 0 mm | - | - | - |
| 1777196451 | 30.56° C | 20% | 1025.3 hPa | 0 mm | - | - | - |
| 1777195551 | 31.67° C | 19% | 1025.3 hPa | 0 mm | - | - | - |
| 1777194651 | 32.78° C | 19% | 1025.4 hPa | 0 mm | - | - | - |
| 1777193751 | 32.78° C | 20% | 1025.3 hPa | 0 mm | - | - | - |
| 1777192851 | 30° C | 22% | 1025.3 hPa | 0 mm | - | - | - |
| 1777191951 | 28.33° C | 23% | 1025.3 hPa | 0 mm | - | - | - |
| 1777191051 | 28.33° C | 23% | 1025.3 hPa | 0 mm | - | - | - |
| 1777190151 | 30° C | 22% | 1025.2 hPa | 0 mm | - | - | - |
| 1777189251 | 33.33° C | 19% | 1025.1 hPa | 0 mm | - | - | - |
| 1777188351 | 32.22° C | 21% | 1025.2 hPa | 0 mm | - | - | - |
* Rain latest hour (hover to see other rain measurements)
** Current wind speed in m/s (hover to see current wind gust speed)